Time;durP1;ratioP1;P1;durP2;ratioP2;P2;SDS_P1;SDS_P2;PMS_P1;PMS_P2;Temp;Humidity;BMP_temperature;BMP_pressure;BME280_temperature;BME280_humidity;BME280_pressure;Samples;Min_cycle;Max_cycle;Signal;HPM_P1;HPM_P2
2022/09/20 00:00:50;;;;;;;3.22;0.70;;;;;;;;;;6181889;23;20012;-83
2022/09/20 00:03:17;;;;;;;0.47;0.47;;;8.60;86.80;;;;;;6182351;23;20024;-82
2022/09/20 00:05:44;;;;;;;1.27;0.70;;;8.50;87.20;;;;;;6182321;23;20013;-82
2022/09/20 00:08:15;;;;;;;0.90;0.60;;;8.50;87.60;;;;;;6182126;23;20428;-82
2022/09/20 00:10:41;;;;;;;0.73;0.73;;;8.60;96.30;;;;;;6182392;23;20437;-82
2022/09/20 00:13:09;;;;;;;1.00;0.80;;;8.50;87.80;;;;;;6182385;23;20005;-82
2022/09/20 00:15:39;;;;;;;;;;;8.40;87.80;;;;;;6182108;23;20009;-82
2022/09/20 00:18:05;;;;;;;0.70;0.70;;;;;;;;;;6155569;23;19900;-82
2022/09/20 00:20:31;;;;;;;4.30;0.68;;;;;;;;;;6182117;23;20013;-82
2022/09/20 00:22:57;;;;;;;4.72;1.00;;;;;;;;;;6182032;23;20005;-82
2022/09/20 00:25:23;;;;;;;3.63;0.80;;;;;;;;;;6182416;23;20064;-82
2022/09/20 00:27:49;;;;;;;0.50;0.50;;;;;;;;;;6155783;23;20007;-83
2022/09/20 00:30:15;;;;;;;0.60;0.60;;;;;;;;;;6182053;23;20104;-82
2022/09/20 00:32:41;;;;;;;0.57;0.57;;;8.00;97.50;;;;;;6182045;23;20028;-82
2022/09/20 00:35:08;;;;;;;1.50;0.68;;;8.40;90.50;;;;;;6182452;23;20009;-82
2022/09/20 00:37:34;;;;;;;1.08;1.00;;;;;;;;;;6181790;23;20012;-82
2022/09/20 00:40:01;;;;;;;1.80;0.73;;;8.40;90.20;;;;;;6181930;23;20013;-82
2022/09/20 00:42:29;;;;;;;0.80;0.80;;;8.30;90.10;;;;;;6182110;23;20019;-82
2022/09/20 00:44:55;;;;;;;0.52;0.52;;;8.30;97.90;;;;;;6181279;23;20470;-82
2022/09/20 00:47:26;;;;;;;0.85;0.73;;;;;;;;;;6181658;23;20039;-82
2022/09/20 00:50:01;;;;;;;1.35;0.60;;;8.00;90.70;;;;;;6155331;23;20005;-82
2022/09/20 00:52:28;;;;;;;5.88;0.80;;;8.00;90.80;;;;;;6182033;23;20004;-82
2022/09/20 00:54:55;;;;;;;2.33;0.52;;;;;;;;;;6155407;23;20348;-82
2022/09/20 00:57:21;;;;;;;0.63;0.63;;;;;;;;;;6181426;23;20040;-82
2022/09/20 00:59:49;;;;;;;0.63;0.63;;;7.80;91.40;;;;;;6181901;23;20463;-82
2022/09/20 01:02:22;;;;;;;3.75;1.13;;;7.80;91.60;;;;;;6182169;23;20131;-83
2022/09/20 01:04:48;;;;;;;1.23;0.88;;;7.70;98.90;;;;;;6182220;23;20005;-82
2022/09/20 01:07:16;;;;;;;0.50;0.50;;;7.70;91.60;;;;;;6181962;23;20056;-82
2022/09/20 01:09:42;;;;;;;0.57;0.57;;;;;;;;;;6181965;23;20032;-82
2022/09/20 01:12:16;;;;;;;0.40;0.40;;;7.90;91.30;;;;;;6181450;23;19997;-83
2022/09/20 01:14:44;;;;;;;1.55;0.63;;;7.80;93.20;;;;;;6181173;23;20015;-82
2022/09/20 01:17:11;;;;;;;2.35;0.68;;;;;;;;;;6155360;23;20040;-82
2022/09/20 01:19:51;;;;;;;2.17;0.60;;;7.50;92.90;;;;;;6181707;23;20052;-82
2022/09/20 01:22:33;;;;;;;0.60;0.60;;;8.20;99.50;;;;;;6181845;23;20021;-82
2022/09/20 01:25:02;;;;;;;0.70;0.70;;;7.60;92.40;;;;;;6182199;23;20017;-82
2022/09/20 01:27:49;;;;;;;0.82;0.80;;;8.20;96.60;;;;;;6181412;23;20079;-82
2022/09/20 01:30:20;;;;;;;0.40;0.40;;;7.50;99.40;;;;;;6155151;23;20087;-82
2022/09/20 01:33:01;;;;;;;0.82;0.80;;;7.40;96.50;;;;;;6181703;23;20233;-82
2022/09/20 01:35:29;;;;;;;1.02;0.80;;;7.50;92.50;;;;;;6181765;23;20047;-82
2022/09/20 01:38:24;;;;;;;1.38;0.50;;;7.40;99.80;;;;;;6180137;23;20384;-82
2022/09/20 01:41:16;;;;;;;0.60;0.60;;;7.30;97.80;;;;;;6180987;23;20337;-82
2022/09/20 01:44:08;;;;;;;0.70;0.70;;;7.50;92.90;;;;;;6181655;23;20083;-82
2022/09/20 01:46:35;;;;;;;0.57;0.57;;;7.50;92.80;;;;;;6090136;23;20006;-83
2022/09/20 01:49:03;;;;;;;1.40;0.70;;;7.30;99.90;;;;;;6088984;23;20011;-82
2022/09/20 01:51:56;;;;;;;2.15;0.73;;;7.10;99.90;;;;;;6089866;23;20089;-82
2022/09/20 01:54:56;;;;;;;0.80;0.80;;;7.20;99.90;;;;;;6090177;23;20085;-82
2022/09/20 01:57:31;;;;;;;0.90;0.82;;;7.10;99.90;;;;;;6065545;23;20034;-82
2022/09/20 02:00:22;;;;;;;2.40;1.50;;;7.30;94.00;;;;;;6090253;23;20006;-82
2022/09/20 02:03:05;;;;;;;9.02;1.15;;;7.50;99.90;;;;;;6065581;23;20772;-83
2022/09/20 02:06:11;;;;;;;1.00;0.80;;;7.50;93.80;;;;;;6089889;23;20061;-82
2022/09/20 02:08:37;;;;;;;3.40;1.02;;;;;;;;;;6090164;23;20441;-82
2022/09/20 02:11:09;;;;;;;4.20;0.85;;;7.50;99.90;;;;;;6090215;23;20011;-82
2022/09/20 02:13:46;;;;;;;0.63;0.63;;;7.30;93.90;;;;;;6089702;23;20002;-82
2022/09/20 02:16:35;;;;;;;1.23;1.13;;;7.30;94.00;;;;;;6089799;23;20015;-83
2022/09/20 02:19:38;;;;;;;0.90;0.80;;;7.20;99.90;;;;;;6091648;23;20010;-82
2022/09/20 02:22:04;;;;;;;0.70;0.70;;;;;;;;;;6091810;23;20041;-83
2022/09/20 02:24:30;;;;;;;0.80;0.80;;;;;;;;;;6178756;23;20000;-82
2022/09/20 02:26:56;;;;;;;0.63;0.63;;;;;;;;;;6183369;23;20040;-82
2022/09/20 02:29:21;;;;;;;1.60;0.93;;;;;;;;;;6183463;23;20467;-82
2022/09/20 02:32:13;;;;;;;7.05;1.10;;;7.00;99.90;;;;;;6183178;23;20400;-82
2022/09/20 02:34:39;;;;;;;2.22;1.20;;;;;;;;;;6156610;23;20340;-82
2022/09/20 02:37:40;;;;;;;1.48;0.70;;;6.90;99.90;;;;;;6183494;23;20012;-83
2022/09/20 02:40:17;;;;;;;2.05;0.70;;;6.70;97.00;;;;;;6091008;23;20568;-83
2022/09/20 02:42:53;;;;;;;1.77;0.90;;;6.70;95.70;;;;;;6091733;23;20055;-82
2022/09/20 02:45:35;;;;;;;0.70;0.70;;;6.50;99.90;;;;;;6091008;23;20014;-82
2022/09/20 02:48:04;;;;;;;0.80;0.80;;;6.60;98.30;;;;;;6091602;23;20011;-82
2022/09/20 02:50:30;;;;;;;0.80;0.80;;;;;;;;;;6067404;23;20542;-83
2022/09/20 02:53:16;;;;;;;0.75;0.75;;;6.70;95.90;;;;;;6091368;23;20075;-83
2022/09/20 02:56:10;;;;;;;0.70;0.70;;;6.70;96.40;;;;;;6091707;23;20010;-83
2022/09/20 02:58:50;;;;;;;3.55;1.17;;;6.80;99.90;;;;;;6091319;23;20137;-82
2022/09/20 03:01:21;;;;;;;0.70;0.70;;;6.70;98.90;;;;;;6091427;23;20137;-82
2022/09/20 03:04:04;;;;;;;5.30;1.60;;;6.50;99.90;;;;;;6091371;23;20014;-82
2022/09/20 03:06:50;;;;;;;2.38;1.13;;;6.90;99.90;;;;;;6091435;23;20009;-82
2022/09/20 03:09:46;;;;;;;0.85;0.80;;;6.60;95.70;;;;;;6091208;23;20017;-82
2022/09/20 03:12:49;;;;;;;1.10;0.82;;;6.60;98.30;;;;;;6091307;23;20021;-82
2022/09/20 03:15:49;;;;;;;0.90;0.90;;;6.60;99.90;;;;;;6090651;23;20013;-82
2022/09/20 03:18:35;;;;;;;14.70;0.90;;;6.60;99.90;;;;;;6183014;23;20008;-83
2022/09/20 03:21:01;;;;;;;0.85;0.85;;;6.50;99.90;;;;;;6182722;23;20013;-82
2022/09/20 03:24:03;;;;;;;1.70;0.82;;;6.40;96.40;;;;;;6182303;23;20016;-82
2022/09/20 03:26:50;;;;;;;0.80;0.80;;;6.60;99.90;;;;;;6182822;23;20008;-82
2022/09/20 03:29:37;;;;;;;3.60;0.93;;;6.30;98.90;;;;;;6182150;23;20017;-82
2022/09/20 03:32:08;;;;;;;;;;;6.30;95.70;;;;;;6183227;23;20005;-82
2022/09/20 03:35:05;;;;;;;1.17;1.08;;;6.10;99.90;;;;;;6182730;23;19908;-82
2022/09/20 03:37:39;;;;;;;0.95;0.90;;;6.40;95.60;;;;;;6182343;23;20008;-82
2022/09/20 03:40:20;;;;;;;2.15;0.98;;;6.30;99.20;;;;;;6155698;23;20139;-82
2022/09/20 03:42:50;;;;;;;0.95;0.80;;;6.50;95.40;;;;;;6182671;23;20009;-82
2022/09/20 03:45:16;;;;;;;1.33;1.23;;;;;;;;;;6155546;23;20013;-83
2022/09/20 03:48:23;;;;;;;3.13;0.90;;;6.40;95.50;;;;;;6182592;23;20102;-83
2022/09/20 03:51:26;;;;;;;2.83;0.70;;;6.20;99.00;;;;;;6090606;23;20601;-82
2022/09/20 03:54:08;;;;;;;1.35;0.98;;;6.40;99.90;;;;;;6090946;23;20014;-83
2022/09/20 03:56:40;;;;;;;1.27;0.90;;;6.20;99.90;;;;;;6081035;23;20054;-83
2022/09/20 03:59:06;;;;;;;1.08;0.77;;;;;;;;;;6062480;23;20141;-82
2022/09/20 04:01:44;;;;;;;0.70;0.68;;;6.00;99.90;;;;;;6061725;23;20054;-82
2022/09/20 04:04:10;;;;;;;0.70;0.70;;;;;;;;;;6062243;23;20065;-82
2022/09/20 04:07:11;;;;;;;0.82;0.80;;;6.10;95.90;;;;;;6061999;23;20086;-82
2022/09/20 04:09:46;;;;;;;0.70;0.70;;;6.00;99.90;;;;;;6062110;23;20014;-82
2022/09/20 04:12:31;;;;;;;0.50;0.50;;;6.30;99.90;;;;;;6038142;23;20516;-82
2022/09/20 04:15:27;;;;;;;0.90;0.90;;;6.20;99.90;;;;;;6061415;23;20019;-82
2022/09/20 04:18:03;;;;;;;1.15;1.05;;;6.40;99.90;;;;;;6038095;23;20007;-82
2022/09/20 04:20:37;;;;;;;0.80;0.80;;;6.40;99.90;;;;;;6061916;23;20011;-82
2022/09/20 04:23:28;;;;;;;0.52;0.52;;;6.40;95.80;;;;;;6061961;23;20469;-82
2022/09/20 04:25:54;;;;;;;1.50;0.70;;;;;;;;;;6062187;23;20474;-83
2022/09/20 04:28:46;;;;;;;0.85;0.75;;;6.30;99.90;;;;;;6133023;23;20009;-82
2022/09/20 04:31:17;;;;;;;1.38;1.00;;;6.40;95.90;;;;;;6152237;23;20077;-82
2022/09/20 04:33:48;;;;;;;0.60;0.60;;;6.30;95.60;;;;;;6152798;23;20020;-82
2022/09/20 04:36:29;;;;;;;0.80;0.80;;;6.30;99.90;;;;;;6152131;23;19998;-83
2022/09/20 04:39:36;;;;;;;2.58;0.65;;;6.10;95.90;;;;;;6152581;23;20010;-83
2022/09/20 04:42:20;;;;;;;0.98;0.98;;;6.00;96.20;;;;;;6151455;23;20759;-82
2022/09/20 04:45:06;;;;;;;0.73;0.73;;;5.10;96.10;;;;;;6125384;23;20009;-83
2022/09/20 04:48:01;;;;;;;6.80;1.10;;;6.20;97.60;;;;;;6152080;23;20012;-83
2022/09/20 04:50:38;;;;;;;0.60;0.60;;;6.00;96.00;;;;;;6151916;23;20009;-82
2022/09/20 04:53:39;;;;;;;6.50;0.98;;;6.30;97.30;;;;;;6126160;23;20060;-82
2022/09/20 04:56:25;;;;;;;2.10;0.90;;;6.20;99.90;;;;;;6155837;23;20084;-83
2022/09/20 04:58:53;;;;;;;0.93;0.73;;;6.00;99.90;;;;;;6181826;23;20063;-82
2022/09/20 05:01:21;;;;;;;4.63;1.13;;;5.80;99.90;;;;;;6181727;23;20448;-83
2022/09/20 05:04:25;;;;;;;1.13;0.93;;;5.90;96.40;;;;;;6155054;23;20492;-83
2022/09/20 05:07:15;;;;;;;1.95;0.98;;;6.00;99.90;;;;;;6181985;23;20004;-82
2022/09/20 05:10:13;;;;;;;9.75;1.00;;;6.10;99.90;;;;;;6181509;23;20430;-82
2022/09/20 05:13:04;;;;;;;1.10;0.85;;;5.80;99.90;;;;;;6182040;23;20009;-82
2022/09/20 05:15:42;;;;;;;3.15;1.23;;;5.90;96.90;;;;;;6181017;23;20020;-82
2022/09/20 05:18:33;;;;;;;1.58;0.95;;;5.90;97.50;;;;;;6154881;23;20016;-82
2022/09/20 05:21:18;;;;;;;0.70;0.70;;;6.10;99.90;;;;;;6181035;23;20036;-82
2022/09/20 05:24:03;;;;;;;0.90;0.60;;;6.00;97.40;;;;;;6181655;23;20001;-83
2022/09/20 05:26:45;;;;;;;0.70;0.70;;;6.20;99.90;;;;;;6181643;23;20524;-82
2022/09/20 05:29:24;;;;;;;3.22;0.90;;;6.20;96.50;;;;;;6181553;23;20005;-82
2022/09/20 05:32:21;;;;;;;1.05;0.98;;;6.30;96.30;;;;;;6179356;23;20467;-90
2022/09/20 05:34:53;;;;;;;;;;;6.30;96.30;;;;;;6170733;23;20013;-89
2022/09/20 05:37:19;;;;;;;0.80;0.80;;;6.10;99.90;;;;;;6182085;23;20327;-89
2022/09/20 05:39:58;;;;;;;4.50;0.93;;;6.10;96.80;;;;;;6155011;23;20060;-88
2022/09/20 05:42:36;;;;;;;1.02;0.93;;;6.20;96.30;;;;;;6154707;23;20060;-90
2022/09/20 05:45:41;;;;;;;8.77;1.02;;;6.20;96.80;;;;;;6180881;23;20012;-89
2022/09/20 05:48:35;;;;;;;1.90;0.98;;;6.20;96.40;;;;;;6181342;23;20016;-89
2022/09/20 05:51:31;;;;;;;0.70;0.70;;;6.20;96.20;;;;;;6182309;23;20072;-88
2022/09/20 05:54:16;;;;;;;0.85;0.85;;;6.20;99.90;;;;;;6156414;23;20012;-89
2022/09/20 05:56:56;;;;;;;0.90;0.90;;;6.40;96.10;;;;;;6183621;23;20016;-88
2022/09/20 05:59:22;;;;;;;0.80;0.80;;;;;;;;;;6181879;23;20004;-82
2022/09/20 06:02:27;;;;;;;4.85;1.60;;;6.60;95.70;;;;;;6180541;23;20020;-79
2022/09/20 06:05:02;;;;;;;1.50;1.40;;;6.60;98.70;;;;;;6181882;23;20024;-79
2022/09/20 06:07:49;;;;;;;2.97;1.25;;;6.20;95.60;;;;;;6182056;23;20388;-79
2022/09/20 06:10:48;;;;;;;1.30;1.20;;;6.70;96.90;;;;;;6181589;23;20009;-80
2022/09/20 06:13:59;;;;;;;2.55;1.55;;;7.10;95.40;;;;;;6155273;23;20384;-79
2022/09/20 06:17:03;;;;;;;2.60;2.38;;;13.20;85.60;;;;;;6180616;23;20059;-81
2022/09/20 06:20:07;;;;;;;1.77;1.67;;;16.70;79.50;;;;;;6089941;23;20006;-81
2022/09/20 06:22:44;;;;;;;2.70;1.80;;;20.90;55.00;;;;;;6089956;23;20807;-80
2022/09/20 06:25:22;;;;;;;;;;;21.10;54.80;;;;;;6090817;23;20089;-81
2022/09/20 06:28:14;;;;;;;2.17;1.50;;;22.20;58.20;;;;;;6080844;23;19948;-80
2022/09/20 06:30:47;;;;;;;1.83;1.73;;;25.10;47.50;;;;;;6087114;23;20077;-85
2022/09/20 06:33:16;;;;;;;2.00;1.70;;;27.40;43.20;;;;;;6083074;23;20010;-88
2022/09/20 06:35:57;;;;;;;2.50;1.80;;;29.30;40.00;;;;;;6087767;23;20010;-90
2022/09/20 06:41:34;;;;;;;1.30;1.20;;;;;;;;;;6090765;23;20098;-91
2022/09/20 06:44:00;;;;;;;2.27;1.13;;;26.50;40.00;;;;;;6090257;23;20003;-89
2022/09/20 06:46:31;;;;;;;1.58;0.73;;;25.80;42.20;;;;;;6092365;23;20018;-90
2022/09/20 06:48:57;;;;;;;2.22;0.80;;;27.90;50.10;;;;;;6087422;23;20093;-90
2022/09/20 06:51:26;;;;;;;1.67;0.95;;;30.90;37.60;;;;;;6090650;23;20446;-88
2022/09/20 06:53:53;;;;;;;4.85;1.08;;;32.70;34.20;;;;;;6065922;23;20073;-90
2022/09/20 06:56:22;;;;;;;3.30;1.30;;;34.30;39.50;;;;;;6138049;23;20017;-88
2022/09/20 06:58:48;;;;;;;3.42;1.00;;;35.80;37.80;;;;;;6172321;23;20092;-86
2022/09/20 07:01:15;;;;;;;0.95;0.60;;;37.80;36.80;;;;;;6180269;23;20021;-87
2022/09/20 07:03:41;;;;;;;2.53;0.50;;;39.00;28.30;;;;;;6176002;23;20079;-87
2022/09/20 07:06:08;;;;;;;0.68;0.47;;;40.20;33.40;;;;;;6153825;23;20020;-84
2022/09/20 07:08:35;;;;;;;2.08;1.05;;;;;;;;;;6175497;23;20001;-87
2022/09/20 07:11:12;;;;;;;3.53;0.65;;;42.10;31.00;;;;;;6180856;23;20001;-86
2022/09/20 07:13:37;;;;;;;3.90;0.80;;;43.00;30.70;;;;;;6179481;23;20798;-87
2022/09/20 07:16:05;;;;;;;0.63;0.52;;;44.00;30.40;;;;;;6178985;23;20005;-84
2022/09/20 07:18:32;;;;;;;1.98;0.70;;;43.80;29.10;;;;;;6175669;23;20001;-84
2022/09/20 07:20:59;;;;;;;1.40;0.70;;;44.70;29.70;;;;;;6180383;23;20016;-84
2022/09/20 07:23:28;;;;;;;2.55;1.02;;;45.20;28.60;;;;;;6173930;23;20680;-83
2022/09/20 07:26:00;;;;;;;2.47;0.80;;;45.80;24.30;;;;;;6180089;23;20081;-84
2022/09/20 07:28:27;;;;;;;1.73;0.80;;;46.10;28.10;;;;;;6174515;23;20055;-81
2022/09/20 07:30:53;;;;;;;1.02;0.65;;;46.70;27.40;;;;;;6178850;23;20115;-82
2022/09/20 07:33:20;;;;;;;3.83;1.33;;;46.50;26.90;;;;;;6179501;23;20512;-83
2022/09/20 07:35:51;;;;;;;2.30;0.77;;;45.10;26.60;;;;;;6153929;23;20044;-83
2022/09/20 07:38:17;;;;;;;3.92;0.90;;;45.50;26.10;;;;;;6172476;23;20008;-83
2022/09/20 07:40:45;;;;;;;1.75;0.80;;;45.50;26.90;;;;;;6180173;23;20035;-83
2022/09/20 07:43:11;;;;;;;3.15;0.68;;;46.00;26.60;;;;;;6179985;23;20028;-83
2022/09/20 07:45:38;;;;;;;2.05;1.30;;;45.10;24.70;;;;;;6179240;23;20197;-83
2022/09/20 07:48:06;;;;;;;3.55;1.02;;;45.30;26.70;;;;;;6172998;23;19997;-86
2022/09/20 07:50:32;;;;;;;2.15;1.27;;;46.00;26.70;;;;;;6181129;23;20344;-85
2022/09/20 07:52:58;;;;;;;2.70;0.90;;;46.50;26.30;;;;;;6151315;23;20380;-86
2022/09/20 07:55:24;;;;;;;3.75;0.80;;;;;;;;;;6179774;23;20024;-86
2022/09/20 07:57:50;;;;;;;0.70;0.70;;;;;;;;;;6172739;23;20016;-85
2022/09/20 08:00:16;;;;;;;1.73;0.75;;;47.30;22.20;;;;;;6179422;23;20474;-84
2022/09/20 08:02:43;;;;;;;4.30;0.90;;;47.50;25.70;;;;;;6179740;23;20013;-85
2022/09/20 08:05:09;;;;;;;1.92;0.70;;;47.20;22.60;;;;;;6179823;23;20008;-87
2022/09/20 08:07:35;;;;;;;2.45;0.85;;;;;;;;;;6172353;23;20084;-86
2022/09/20 08:10:02;;;;;;;3.83;1.10;;;47.90;25.30;;;;;;6153597;23;20044;-91
2022/09/20 08:12:28;;;;;;;1.13;0.60;;;47.70;25.10;;;;;;6180546;23;20020;-90
2022/09/20 08:14:54;;;;;;;5.35;0.75;;;48.50;25.10;;;;;;6178491;23;20813;-85
2022/09/20 08:17:19;;;;;;;1.98;0.85;;;48.60;22.40;;;;;;6176168;23;20024;-83
2022/09/20 08:19:45;;;;;;;1.13;0.82;;;49.00;24.50;;;;;;6176900;23;20051;-82
2022/09/20 08:22:11;;;;;;;1.08;0.70;;;49.20;24.60;;;;;;6179809;23;20020;-84
2022/09/20 08:24:38;;;;;;;0.75;0.63;;;48.30;24.40;;;;;;6179534;23;20027;-84
2022/09/20 08:27:04;;;;;;;0.93;0.60;;;;;;;;;;6176357;23;20060;-89
2022/09/20 08:29:29;;;;;;;2.10;0.93;;;49.90;24.00;;;;;;6173263;23;20437;-88
2022/09/20 08:31:57;;;;;;;2.17;0.60;;;50.00;24.00;;;;;;6180273;23;20013;-84
2022/09/20 08:34:23;;;;;;;1.25;0.82;;;50.50;24.00;;;;;;6177103;23;20009;-84
2022/09/20 08:36:50;;;;;;;2.15;0.82;;;50.00;24.10;;;;;;6178836;23;20340;-83
2022/09/20 08:39:17;;;;;;;3.03;0.65;;;49.80;20.90;;;;;;6172930;23;20067;-85
2022/09/20 08:41:55;;;;;;;3.15;0.90;;;50.20;23.30;;;;;;6179266;23;19993;-91
2022/09/20 08:44:23;;;;;;;4.60;0.93;;;50.20;23.60;;;;;;6180128;23;20012;-90
2022/09/20 08:47:01;;;;;;;1.95;0.73;;;49.80;23.70;;;;;;6180750;23;20004;-92
2022/09/20 08:49:28;;;;;;;4.35;1.00;;;49.30;22.20;;;;;;6176580;23;20009;-84
2022/09/20 08:51:57;;;;;;;2.75;0.70;;;49.20;23.80;;;;;;6176298;23;20013;-85
2022/09/20 08:54:24;;;;;;;1.90;0.60;;;49.50;23.90;;;;;;6179730;23;20016;-83
2022/09/20 08:56:50;;;;;;;2.70;0.75;;;49.70;23.40;;;;;;6179541;23;20088;-85
2022/09/20 08:59:21;;;;;;;3.58;0.73;;;49.80;23.90;;;;;;6173848;23;20025;-86
2022/09/20 09:01:48;;;;;;;2.65;1.02;;;50.20;23.70;;;;;;6150887;23;20452;-85
2022/09/20 09:04:22;;;;;;;1.67;0.80;;;50.60;23.70;;;;;;6179101;23;20008;-85
2022/09/20 09:06:51;;;;;;;0.68;0.52;;;50.60;23.60;;;;;;6179569;23;20055;-85
2022/09/20 09:09:23;;;;;;;1.95;0.65;;;49.30;20.80;;;;;;6172832;23;20005;-86
2022/09/20 09:11:50;;;;;;;1.35;0.57;;;49.10;23.40;;;;;;6178714;23;20440;-86
2022/09/20 09:17:00;;;;;;;3.10;0.82;;;48.40;21.40;;;;;;6112746;23;20487;-87
2022/09/20 09:19:32;;;;;;;3.15;0.60;;;48.60;24.00;;;;;;6115581;23;20009;-89
2022/09/20 09:22:04;;;;;;;1.92;0.80;;;49.00;23.80;;;;;;6122197;23;20006;-84
2022/09/20 09:24:31;;;;;;;3.42;0.77;;;49.90;23.90;;;;;;6118993;23;20006;-84
2022/09/20 09:27:18;;;;;;;10.52;1.35;;;49.50;20.10;;;;;;6120283;23;20006;-84
2022/09/20 09:30:01;;;;;;;1.67;0.90;;;49.10;23.50;;;;;;6117726;23;20449;-85
2022/09/20 09:32:30;;;;;;;1.93;0.60;;;50.10;23.80;;;;;;6122118;23;20117;-84
2022/09/20 09:35:17;;;;;;;2.40;0.60;;;49.70;20.30;;;;;;6118486;23;20229;-85
2022/09/20 09:38:01;;;;;;;1.20;0.77;;;49.70;23.50;;;;;;6113911;23;20006;-86
2022/09/20 09:40:31;;;;;;;1.38;0.60;;;50.10;20.10;;;;;;6119947;23;20006;-86
2022/09/20 09:43:02;;;;;;;2.63;0.52;;;50.30;22.00;;;;;;6120527;23;20010;-84
2022/09/20 09:45:37;;;;;;;2.60;0.93;;;50.00;23.40;;;;;;6117605;23;19998;-86
2022/09/20 09:48:18;;;;;;;3.97;0.60;;;50.10;23.40;;;;;;6114711;23;20475;-86
2022/09/20 09:50:44;;;;;;;3.88;0.60;;;50.10;23.30;;;;;;6119548;23;20006;-85
2022/09/20 09:53:17;;;;;;;1.00;0.65;;;50.30;23.80;;;;;;6119467;23;20143;-86
2022/09/20 09:55:54;;;;;;;1.95;0.60;;;50.10;23.50;;;;;;6117857;23;20002;-86
2022/09/20 09:58:29;;;;;;;1.48;0.47;;;49.90;23.40;;;;;;6113889;23;20045;-85
2022/09/20 10:00:58;;;;;;;0.40;0.40;;;50.40;23.20;;;;;;6119522;23;20350;-85
2022/09/20 10:03:48;;;;;;;1.65;0.50;;;49.20;23.10;;;;;;6118314;23;20002;-86
2022/09/20 10:06:22;;;;;;;0.93;0.43;;;48.50;23.10;;;;;;6118252;23;20017;-91
2022/09/20 10:08:59;;;;;;;1.20;0.20;;;48.30;23.30;;;;;;6116103;23;20682;-90
2022/09/20 10:11:36;;;;;;;3.08;0.60;;;48.40;23.20;;;;;;6120949;23;20122;-90
2022/09/20 10:14:17;;;;;;;1.05;0.65;;;48.10;21.90;;;;;;6119428;23;20010;-92
2022/09/20 10:16:52;;;;;;;2.08;0.60;;;;;;;;;;6119612;23;20453;-90
2022/09/20 10:19:26;;;;;;;1.20;0.50;;;47.60;19.30;;;;;;6114352;23;20002;-91
2022/09/20 10:22:34;;;;;;;0.55;0.32;;;47.30;23.50;;;;;;6120673;23;20002;-91
2022/09/20 10:25:15;;;;;;;1.35;0.50;;;46.80;19.20;;;;;;6120531;23;20039;-91
2022/09/20 10:28:16;;;;;;;1.60;0.25;;;47.00;22.80;;;;;;6111706;23;20005;-91
2022/09/20 10:30:57;;;;;;;0.75;0.20;;;47.40;19.40;;;;;;6105095;23;20014;-90
2022/09/20 10:33:31;;;;;;;3.50;0.32;;;47.40;23.10;;;;;;6120986;23;20024;-90
2022/09/20 10:36:29;;;;;;;1.40;0.30;;;47.60;20.10;;;;;;6118162;23;20002;-91
2022/09/20 10:39:03;;;;;;;2.67;0.45;;;48.10;23.10;;;;;;6081488;23;20098;-90
2022/09/20 10:44:19;;;;;;;1.52;0.30;;;;;;;;;;6089141;23;20018;-90
2022/09/20 10:47:14;;;;;;;1.55;0.52;;;47.70;19.20;;;;;;6065899;23;20470;-85
2022/09/20 10:50:04;;;;;;;0.52;0.20;;;47.30;23.40;;;;;;6086574;23;20018;-91
2022/09/20 10:52:30;;;;;;;1.00;0.38;;;47.50;23.80;;;;;;6090092;23;20021;-88
2022/09/20 10:55:19;;;;;;;1.05;0.10;;;47.00;22.60;;;;;;6089367;23;20017;-86
2022/09/20 10:58:03;;;;;;;2.22;0.30;;;47.40;24.30;;;;;;6105440;23;20025;-86
2022/09/20 11:00:53;;;;;;;3.50;0.10;;;47.20;19.20;;;;;;6117489;23;20002;-87
2022/09/20 11:03:34;;;;;;;1.85;0.85;;;47.70;19.90;;;;;;6118455;23;20593;-87
2022/09/20 11:06:20;;;;;;;1.38;0.20;;;46.80;19.20;;;;;;6092766;23;20520;-86
2022/09/20 11:08:50;;;;;;;1.98;0.60;;;46.20;19.30;;;;;;6112702;23;20144;-86
2022/09/20 11:11:36;;;;;;;1.15;0.40;;;46.10;19.40;;;;;;6116675;23;20146;-86
2022/09/20 11:14:02;;;;;;;0.90;0.15;;;;;;;;;;6117480;23;20532;-86
2022/09/20 11:16:40;;;;;;;2.80;0.32;;;45.00;19.40;;;;;;6114519;23;20037;-86
2022/09/20 11:19:34;;;;;;;1.38;0.30;;;43.80;21.70;;;;;;6114545;23;20081;-85
2022/09/20 11:22:00;;;;;;;1.83;0.40;;;;;;;;;;6121118;23;20093;-85
2022/09/20 11:24:35;;;;;;;0.95;0.20;;;41.70;20.20;;;;;;6119149;23;20498;-85
2022/09/20 11:27:11;;;;;;;0.95;0.25;;;40.30;20.60;;;;;;6121105;23;20338;-86
2022/09/20 11:29:37;;;;;;;1.20;0.30;;;;;;;;;;6118523;23;20041;-84
2022/09/20 11:32:16;;;;;;;3.00;0.55;;;36.10;24.20;;;;;;6118280;23;20024;-85
2022/09/20 11:34:54;;;;;;;2.75;0.30;;;34.60;21.90;;;;;;6120723;23;20006;-87
2022/09/20 11:37:24;;;;;;;2.60;0.43;;;32.90;22.60;;;;;;6118780;23;20023;-88
2022/09/20 11:39:54;;;;;;;0.43;0.30;;;32.00;23.20;;;;;;6117343;23;20041;-87
2022/09/20 11:42:27;;;;;;;1.40;0.40;;;31.50;23.80;;;;;;6116689;23;20002;-86
2022/09/20 11:44:54;;;;;;;0.77;0.25;;;30.60;32.40;;;;;;6120242;23;20101;-87
2022/09/20 11:47:31;;;;;;;2.00;0.50;;;30.00;26.60;;;;;;6118158;23;20010;-88
2022/09/20 11:50:22;;;;;;;3.50;0.30;;;29.60;24.50;;;;;;6119285;23;20033;-87
2022/09/20 11:53:03;;;;;;;0.70;0.50;;;29.50;34.20;;;;;;6120667;23;20010;-88
2022/09/20 11:55:29;;;;;;;3.95;0.40;;;;;;;;;;6119294;23;20006;-86
2022/09/20 11:58:01;;;;;;;1.02;0.43;;;29.40;25.00;;;;;;6166315;23;20515;-87
2022/09/20 12:00:34;;;;;;;0.40;0.30;;;29.30;25.30;;;;;;6180988;23;20554;-86
2022/09/20 12:03:02;;;;;;;1.45;0.35;;;29.30;25.40;;;;;;6177606;23;20031;-86
2022/09/20 12:05:36;;;;;;;0.95;0.40;;;29.20;25.60;;;;;;6179241;23;20453;-87
2022/09/20 12:08:05;;;;;;;2.95;0.30;;;29.20;27.10;;;;;;6173424;23;20020;-86
2022/09/20 12:10:35;;;;;;;0.25;0.20;;;29.00;25.80;;;;;;6179582;23;19997;-87
2022/09/20 12:13:07;;;;;;;1.00;0.60;;;28.90;28.90;;;;;;6179258;23;20009;-86
2022/09/20 12:15:32;;;;;;;2.15;0.70;;;28.80;32.20;;;;;;6177695;23;20001;-87
2022/09/20 12:17:58;;;;;;;1.55;0.60;;;;;;;;;;6173019;23;20004;-87
2022/09/20 12:20:33;;;;;;;2.28;0.73;;;28.60;36.80;;;;;;6179045;23;20027;-88
2022/09/20 12:23:53;;;;;;;4.60;0.70;;;28.40;37.30;;;;;;6179342;23;20001;-85
2022/09/20 12:26:21;;;;;;;0.50;0.30;;;27.90;26.50;;;;;;6116105;23;20002;-84
2022/09/20 12:28:52;;;;;;;2.75;0.65;;;27.70;26.90;;;;;;6110800;23;20105;-85
2022/09/20 12:31:21;;;;;;;1.65;0.40;;;;;;;;;;6116938;23;20021;-84
2022/09/20 12:34:09;;;;;;;1.05;0.50;;;27.20;26.90;;;;;;6115785;23;20841;-84
2022/09/20 12:36:43;;;;;;;1.77;0.65;;;27.00;29.20;;;;;;6092368;23;20038;-84
2022/09/20 12:39:09;;;;;;;0.60;0.50;;;;;;;;;;6085877;23;20010;-85
2022/09/20 12:41:56;;;;;;;4.93;0.50;;;26.60;27.60;;;;;;6117399;23;20002;-85
2022/09/20 12:44:25;;;;;;;;;;;26.70;28.30;;;;;;6092509;23;20017;-84
2022/09/20 12:46:53;;;;;;;3.75;0.45;;;26.20;28.20;;;;;;6114741;23;20436;-85
2022/09/20 12:55:10;;;;;;;4.10;0.50;;;25.20;28.80;;;;;;6116528;23;20017;-82
2022/09/20 12:57:37;;;;;;;2.58;0.55;;;;;;;;;;6111561;23;20033;-87
2022/09/20 13:00:07;;;;;;;0.80;0.63;;;24.70;41.00;;;;;;6138268;23;20040;-89
2022/09/20 13:02:51;;;;;;;2.65;0.60;;;24.70;29.30;;;;;;6178488;23;20080;-85
2022/09/20 13:05:39;;;;;;;2.15;0.80;;;24.60;29.70;;;;;;6179634;23;20044;-83
2022/09/20 13:08:19;;;;;;;1.75;0.57;;;24.50;30.00;;;;;;6170731;23;20427;-84
2022/09/20 13:10:58;;;;;;;0.70;0.55;;;24.20;42.30;;;;;;6178429;23;20015;-84
2022/09/20 13:13:30;;;;;;;3.10;0.73;;;24.10;30.50;;;;;;6179059;23;20059;-83
2022/09/20 13:15:57;;;;;;;0.73;0.50;;;24.00;30.80;;;;;;6179162;23;20005;-83
2022/09/20 13:18:26;;;;;;;3.67;0.50;;;23.70;30.90;;;;;;6168762;23;20016;-82
2022/09/20 13:20:52;;;;;;;0.82;0.40;;;;;;;;;;6179507;23;20004;-83
2022/09/20 13:23:25;;;;;;;3.43;0.50;;;23.60;31.60;;;;;;6178456;23;19997;-82
2022/09/20 13:25:51;;;;;;;1.05;0.43;;;;;;;;;;6176903;23;20237;-83
2022/09/20 13:28:17;;;;;;;2.83;0.95;;;;;;;;;;6168965;23;20380;-83
2022/09/20 13:30:43;;;;;;;4.45;0.82;;;;;;;;;;6179416;23;20005;-79
2022/09/20 13:33:24;;;;;;;0.45;0.35;;;23.00;32.80;;;;;;6177737;23;20008;-82
2022/09/20 13:35:53;;;;;;;0.47;0.47;;;22.80;33.20;;;;;;6179762;23;20024;-82
2022/09/20 13:38:23;;;;;;;1.42;0.68;;;;;;;;;;6169670;23;20001;-82
2022/09/20 13:40:50;;;;;;;1.00;0.68;;;23.20;42.10;;;;;;6179157;23;20021;-85
2022/09/20 13:43:34;;;;;;;0.65;0.40;;;22.50;41.20;;;;;;6179404;23;20001;-85
2022/09/20 13:46:07;;;;;;;2.72;0.88;;;22.40;34.00;;;;;;6177826;23;20112;-82
2022/09/20 13:48:33;;;;;;;1.08;0.43;;;;;;;;;;6169365;23;20515;-82
2022/09/20 13:50:59;;;;;;;0.37;0.30;;;23.00;47.70;;;;;;6178889;23;20344;-87
2022/09/20 13:53:27;;;;;;;4.30;0.70;;;22.50;46.00;;;;;;6177864;23;20007;-86
2022/09/20 13:55:55;;;;;;;0.90;0.60;;;22.60;47.50;;;;;;6178220;23;20005;-83
2022/09/20 13:58:21;;;;;;;1.77;1.10;;;;;;;;;;6173048;23;20385;-86
2022/09/20 14:01:02;;;;;;;1.75;1.13;;;22.50;34.80;;;;;;6177067;23;20009;-86
2022/09/20 14:03:31;;;;;;;2.38;0.57;;;22.80;38.20;;;;;;6178610;23;20096;-83
2022/09/20 14:06:08;;;;;;;0.55;0.50;;;22.50;35.30;;;;;;6177960;23;20002;-85
2022/09/20 14:08:35;;;;;;;0.50;0.50;;;;;;;;;;6170537;23;20029;-83